ePrivacy and GPDR Cookie Consent by Cookie Consent
EmailTwitter


Observations de surface / Québec / CYUL (71627)

Régions: Québec | Canada | États-Unis | Europe | France | UK | Ailleurs
Station
Affichage
Infos & localisation pour CYUL (71627) | Aide pour décoder les METARs

Observations prises le 2021-04-18 à 08H00 UTC à MONTREAL INTL A, QB (CYUL)

Etat du ciel: couvert.

Température: 6.0 Celsius

Point de rosée: 1.0 Celsius

Humidité relative: 70%

Vents: Nord-nord-est à 7 km/h ou 4 noeuds.

Pression au niveau moyen de la mer: 100.88 kilopascals.

Calage altimétrique: 100.85 kilopascals ou 29.78 pouces de mercure.

Visibilité horizontale: 15.00 milles terrestres ou 24.00 kilomètres.

Hauteur du plafond: 1524 mètres ( 5000 pieds ).

Observation METAR:

CYUL 180800Z 02004KT 15SM OVC050 06/01 A2978 RMK SC8 SLP088=